Time;durP1;ratioP1;P1;durP2;ratioP2;P2;SDS_P1;SDS_P2;PMS_P1;PMS_P2;Temp;Humidity;BMP_temperature;BMP_pressure;BME280_temperature;BME280_humidity;BME280_pressure;Samples;Min_cycle;Max_cycle;Signal;HPM_P1;HPM_P2
2023/05/15 00:00:54;;;;;;;33.83;20.00;;;;;;;;;;5011489;28;21710;-70
2023/05/15 00:03:19;;;;;;;35.23;20.00;;;;;;;;;;5012927;28;20265;-70
2023/05/15 00:05:45;;;;;;;41.23;24.13;;;;;;;;;;5013853;28;20309;-69
2023/05/15 00:08:10;;;;;;;41.00;22.17;;;;;;;;;;5014601;28;20182;-70
2023/05/15 00:10:35;;;;;;;29.90;19.93;;;;;;;;;;5020025;23;20274;-75
2023/05/15 00:13:00;;;;;;;37.47;24.13;;;;;;;;;;5014642;28;20253;-75
2023/05/15 00:15:25;;;;;;;35.00;21.10;;;;;;;;;;5004404;28;20696;-75
2023/05/15 00:17:51;;;;;;;42.43;22.13;;;;;;;;;;5005259;28;20175;-76
2023/05/15 00:20:16;;;;;;;43.07;22.83;;;;;;;;;;5008139;28;20274;-75
2023/05/15 00:22:41;;;;;;;36.90;23.87;;;;;;;;;;5005673;28;20476;-76
2023/05/15 00:25:07;;;;;;;38.77;22.17;;;;;;;;;;5008190;28;20245;-75
2023/05/15 00:27:32;;;;;;;36.97;21.43;;;;;;;;;;5013303;28;20179;-75
2023/05/15 00:29:57;;;;;;;38.50;23.07;;;;;;;;;;5030379;28;20204;-75
2023/05/15 00:32:22;;;;;;;38.30;22.10;;;;;;;;;;5010723;28;20293;-76
2023/05/15 00:34:47;;;;;;;38.60;23.40;;;;;;;;;;5005309;28;20206;-76
2023/05/15 00:37:13;;;;;;;41.17;23.17;;;;;;;;;;5005389;28;21792;-76
2023/05/15 00:39:38;;;;;;;39.20;24.20;;;;;;;;;;5006173;28;20233;-75
2023/05/15 00:42:03;;;;;;;39.50;22.87;;;;;;;;;;5005886;28;20227;-76
2023/05/15 00:44:32;;;;;;;39.53;22.27;;;;;;;;;;5001178;28;20274;-76
2023/05/15 00:46:58;;;;;;;38.27;22.10;;;;;;;;;;5006523;28;20175;-77
2023/05/15 00:49:23;;;;;;;36.90;22.13;;;;;;;;;;5004332;28;20189;-76
2023/05/15 00:51:49;;;;;;;38.30;23.67;;;;;;;;;;5006645;28;20257;-76
2023/05/15 00:54:15;;;;;;;35.23;21.87;;;;;;;;;;5012464;28;20171;-76
2023/05/15 00:56:41;;;;;;;39.77;22.93;;;;;;;;;;5003949;28;20202;-76
2023/05/15 00:59:07;;;;;;;36.33;20.47;;;;;;;;;;5002032;28;20183;-76
2023/05/15 01:01:33;;;;;;;41.57;22.97;;;;;;;;;;5004624;28;20551;-76
2023/05/15 01:04:00;;;;;;;39.63;22.33;;;;;;;;;;5005354;28;20871;-76
2023/05/15 01:06:25;;;;;;;42.73;23.60;;;;;;;;;;5002570;28;20175;-76
2023/05/15 01:08:50;;;;;;;39.80;22.60;;;;;;;;;;5007091;28;20270;-76
2023/05/15 01:11:16;;;;;;;41.47;23.87;;;;;;;;;;5004932;28;20211;-76
2023/05/15 01:13:42;;;;;;;38.63;23.10;;;;;;;;;;5004180;28;20649;-76
2023/05/15 01:16:07;;;;;;;43.57;24.13;;;;;;;;;;5006056;28;20226;-76
2023/05/15 01:18:33;;;;;;;41.93;23.87;;;;;;;;;;5006246;28;20190;-76
2023/05/15 01:21:04;;;;;;;43.97;26.07;;;;;;;;;;5003436;28;20230;-75
2023/05/15 01:23:48;;;;;;;45.80;24.33;;;;;;;;;;5003728;28;20264;-75
2023/05/15 01:26:20;;;;;;;47.60;25.23;;;;;;;;;;5004446;28;20265;-77
2023/05/15 01:28:50;;;;;;;44.73;25.10;;;;;;;;;;5003850;28;20183;-76
2023/05/15 01:31:18;;;;;;;47.07;26.37;;;;;;;;;;5004667;28;20624;-76
2023/05/15 01:33:45;;;;;;;43.07;24.97;;;;;;;;;;5003710;28;20187;-76
2023/05/15 01:36:13;;;;;;;43.37;24.40;;;;;;;;;;5003134;28;20651;-76
2023/05/15 01:38:41;;;;;;;43.40;24.23;;;;;;;;;;5003086;28;20261;-76
2023/05/15 01:41:14;;;;;;;47.57;23.13;;;;;;;;;;5002935;28;20206;-76
2023/05/15 01:43:41;;;;;;;41.10;24.87;;;;;;;;;;5005050;28;20231;-76
2023/05/15 01:46:06;;;;;;;43.03;23.80;;;;;;;;;;5000762;28;20210;-76
2023/05/15 01:48:33;;;;;;;48.93;25.17;;;;;;;;;;5003212;28;20698;-76
2023/05/15 01:51:00;;;;;;;47.27;24.33;;;;;;;;;;5005895;28;20195;-76
2023/05/15 01:53:26;;;;;;;45.17;23.97;;;;;;;;;;5005518;28;20261;-76
2023/05/15 01:55:52;;;;;;;43.53;25.20;;;;;;;;;;4998180;28;20282;-76
2023/05/15 01:58:17;;;;;;;47.17;24.67;;;;;;;;;;5012558;28;20309;-75
2023/05/15 02:00:43;;;;;;;47.83;24.93;;;;;;;;;;5009534;28;20300;-75
2023/05/15 02:03:08;;;;;;;45.03;24.40;;;;;;;;;;5012912;28;20191;-76
2023/05/15 02:05:34;;;;;;;45.43;24.50;;;;;;;;;;5010683;28;20501;-76
2023/05/15 02:08:00;;;;;;;41.87;23.97;;;;;;;;;;5010278;28;20555;-75
2023/05/15 02:10:26;;;;;;;41.47;24.27;;;;;;;;;;5003235;28;20191;-75
2023/05/15 02:12:51;;;;;;;37.57;21.07;;;;;;;;;;5006477;28;20265;-76
2023/05/15 02:15:17;;;;;;;40.40;22.07;;;;;;;;;;5002217;28;20668;-75
2023/05/15 02:17:43;;;;;;;41.67;22.57;;;;;;;;;;5002766;28;20933;-76
2023/05/15 02:20:08;;;;;;;48.70;23.20;;;;;;;;;;5005781;28;20633;-76
2023/05/15 02:22:34;;;;;;;37.67;21.00;;;;;;;;;;5004652;28;20211;-76
2023/05/15 02:24:59;;;;;;;37.90;20.90;;;;;;;;;;5003585;28;20693;-76
2023/05/15 02:27:31;;;;;;;41.93;20.93;;;;;;;;;;5006046;28;20221;-76
2023/05/15 02:29:59;;;;;;;34.80;20.47;;;;;;;;;;5009304;28;20267;-76
2023/05/15 02:32:27;;;;;;;37.77;22.07;;;;;;;;;;5003097;28;20250;-76
2023/05/15 02:35:11;;;;;;;38.33;20.97;;;;;;;;;;5008390;28;20179;-76
2023/05/15 02:37:38;;;;;;;33.77;19.20;;;;;;;;;;5008236;28;20637;-76
2023/05/15 02:40:05;;;;;;;37.80;20.27;;;;;;;;;;5007404;28;20193;-77
2023/05/15 02:42:31;;;;;;;32.87;18.83;;;;;;;;;;5007022;28;20633;-76
2023/05/15 02:44:56;;;;;;;33.30;19.53;;;;;;;;;;5008144;28;20264;-76
2023/05/15 02:47:22;;;;;;;46.70;22.23;;;;;;;;;;5010632;28;20217;-77
2023/05/15 02:49:48;;;;;;;35.67;20.27;;;;;;;;;;5016779;28;20179;-76
2023/05/15 02:52:13;;;;;;;39.13;21.60;;;;;;;;;;5009328;28;20192;-76
2023/05/15 02:54:38;;;;;;;41.40;21.00;;;;;;;;;;5010734;28;20233;-76
2023/05/15 02:57:03;;;;;;;37.43;19.80;;;;;;;;;;5008570;28;20184;-76
2023/05/15 02:59:28;;;;;;;30.20;17.47;;;;;;;;;;5006654;28;20218;-77
2023/05/15 03:01:54;;;;;;;31.07;19.13;;;;;;;;;;5009322;28;20209;-76
2023/05/15 03:04:19;;;;;;;33.50;19.60;;;;;;;;;;5019402;28;20187;-76
2023/05/15 03:06:44;;;;;;;27.43;15.37;;;;;;;;;;5017983;28;20211;-76
2023/05/15 03:09:09;;;;;;;26.13;16.80;;;;;;;;;;5012407;28;20622;-76
2023/05/15 03:11:35;;;;;;;28.60;16.80;;;;;;;;;;5010540;28;20215;-76
2023/05/15 03:14:00;;;;;;;26.47;15.87;;;;;;;;;;5016096;28;20198;-76
2023/05/15 03:16:27;;;;;;;22.83;16.10;;;;;;;;;;5016972;28;20203;-76
2023/05/15 03:18:52;;;;;;;24.43;15.20;;;;;;;;;;5008605;28;20211;-76
2023/05/15 03:21:18;;;;;;;28.23;16.87;;;;;;;;;;5010871;28;20209;-76
2023/05/15 03:23:43;;;;;;;25.37;16.33;;;;;;;;;;5017450;28;20198;-76
2023/05/15 03:26:08;;;;;;;28.07;16.67;;;;;;;;;;5007609;28;20211;-76
2023/05/15 03:28:33;;;;;;;26.93;15.87;;;;;;;;;;5005868;28;20185;-76
2023/05/15 03:30:58;;;;;;;24.33;16.53;;;;;;;;;;5005312;28;20202;-76
2023/05/15 03:33:24;;;;;;;25.67;16.33;;;;;;;;;;5006413;28;20231;-76
2023/05/15 03:35:51;;;;;;;27.30;15.23;;;;;;;;;;5006045;28;20191;-76
2023/05/15 03:38:16;;;;;;;24.77;15.77;;;;;;;;;;5009343;28;20190;-76
2023/05/15 03:40:41;;;;;;;30.63;17.50;;;;;;;;;;5009385;28;20853;-75
2023/05/15 03:43:07;;;;;;;25.17;16.07;;;;;;;;;;5008381;28;20179;-76
2023/05/15 03:45:33;;;;;;;29.83;17.03;;;;;;;;;;5007116;28;20294;-77
2023/05/15 03:47:58;;;;;;;25.97;17.43;;;;;;;;;;5015676;28;20232;-76
2023/05/15 03:50:23;;;;;;;25.47;15.73;;;;;;;;;;5014364;28;20254;-76
2023/05/15 03:52:48;;;;;;;24.17;16.17;;;;;;;;;;5008460;28;20927;-76
2023/05/15 03:55:13;;;;;;;24.53;15.47;;;;;;;;;;5008195;28;20175;-76
2023/05/15 03:57:40;;;;;;;24.03;15.50;;;;;;;;;;5008480;28;20569;-76
2023/05/15 04:00:09;;;;;;;26.57;17.07;;;;;;;;;;5013706;28;20185;-76
2023/05/15 04:02:35;;;;;;;27.70;17.60;;;;;;;;;;5018644;28;20210;-76
2023/05/15 04:05:00;;;;;;;26.03;16.50;;;;;;;;;;5015700;28;20280;-76
2023/05/15 04:07:25;;;;;;;23.90;15.87;;;;;;;;;;5018427;28;20229;-76
2023/05/15 04:09:50;;;;;;;25.20;15.97;;;;;;;;;;5020349;28;20644;-76
2023/05/15 04:12:16;;;;;;;28.80;16.30;;;;;;;;;;5007034;28;20202;-76
2023/05/15 04:14:41;;;;;;;26.23;16.87;;;;;;;;;;5016244;28;20175;-76
2023/05/15 04:17:06;;;;;;;28.37;16.87;;;;;;;;;;5011454;28;20258;-75
2023/05/15 04:19:31;;;;;;;27.00;17.57;;;;;;;;;;5012699;28;20656;-76
2023/05/15 04:21:56;;;;;;;27.27;16.10;;;;;;;;;;5009941;28;20290;-76
2023/05/15 04:24:22;;;;;;;25.37;16.83;;;;;;;;;;5014777;28;20238;-76
2023/05/15 04:26:47;;;;;;;24.43;16.67;;;;;;;;;;5006066;28;20207;-75
2023/05/15 04:29:12;;;;;;;25.43;16.97;;;;;;;;;;5008238;28;20242;-75
2023/05/15 04:31:37;;;;;;;23.37;16.53;;;;;;;;;;5021394;28;20198;-76
2023/05/15 04:34:03;;;;;;;21.47;15.23;;;;;;;;;;5010820;28;20203;-76
2023/05/15 04:36:29;;;;;;;24.87;15.50;;;;;;;;;;5015469;28;20195;-75
2023/05/15 04:38:54;;;;;;;30.83;16.67;;;;;;;;;;5011975;28;20704;-76
2023/05/15 04:41:19;;;;;;;23.90;15.77;;;;;;;;;;5008197;28;20206;-76
2023/05/15 04:43:45;;;;;;;25.70;17.13;;;;;;;;;;5007380;28;20179;-75
2023/05/15 04:46:10;;;;;;;27.37;17.83;;;;;;;;;;5008000;28;20199;-75
2023/05/15 04:48:35;;;;;;;31.30;18.60;;;;;;;;;;5007068;28;20574;-76
2023/05/15 04:51:01;;;;;;;28.17;19.47;;;;;;;;;;5008875;28;20334;-76
2023/05/15 04:53:26;;;;;;;30.87;18.77;;;;;;;;;;5011861;28;20185;-75
2023/05/15 04:55:51;;;;;;;29.77;18.67;;;;;;;;;;5006049;28;20825;-76
2023/05/15 04:58:16;;;;;;;25.30;17.97;;;;;;;;;;5012344;28;20193;-75
2023/05/15 05:00:41;;;;;;;33.27;19.10;;;;;;;;;;5005890;28;20304;-75
2023/05/15 05:03:07;;;;;;;30.87;20.13;;;;;;;;;;5014267;28;20179;-75
2023/05/15 05:05:32;;;;;;;28.97;18.40;;;;;;;;;;4999819;28;20243;-75
2023/05/15 05:07:57;;;;;;;36.57;20.57;;;;;;;;;;5011493;28;20178;-75
2023/05/15 05:10:22;;;;;;;29.20;18.40;;;;;;;;;;5008956;28;20171;-75
2023/05/15 05:12:48;;;;;;;31.13;19.70;;;;;;;;;;5013823;28;20185;-76
2023/05/15 05:15:13;;;;;;;29.73;19.33;;;;;;;;;;5004862;28;20269;-75
2023/05/15 05:17:38;;;;;;;29.53;18.60;;;;;;;;;;5010078;28;20662;-77
2023/05/15 05:20:03;;;;;;;30.03;17.40;;;;;;;;;;5006539;28;20186;-76
2023/05/15 05:22:29;;;;;;;24.53;16.60;;;;;;;;;;5007218;28;20209;-76
2023/05/15 05:24:55;;;;;;;26.37;17.43;;;;;;;;;;5011008;28;20191;-75
2023/05/15 05:27:20;;;;;;;26.03;17.40;;;;;;;;;;5010023;28;20194;-76
2023/05/15 05:29:45;;;;;;;29.10;18.17;;;;;;;;;;5009361;28;20642;-76
2023/05/15 05:32:11;;;;;;;24.77;16.37;;;;;;;;;;5009298;28;20206;-77
2023/05/15 05:34:36;;;;;;;24.30;16.97;;;;;;;;;;5009042;28;20174;-77
2023/05/15 05:37:02;;;;;;;26.33;17.60;;;;;;;;;;5003552;28;20266;-76
2023/05/15 05:39:27;;;;;;;26.40;18.00;;;;;;;;;;5011210;28;20566;-76
2023/05/15 05:41:52;;;;;;;23.33;15.23;;;;;;;;;;5009535;28;20203;-75
2023/05/15 05:44:17;;;;;;;24.23;17.20;;;;;;;;;;5005450;28;20671;-75
2023/05/15 05:46:44;;;;;;;31.20;17.40;;;;;;;;;;5006852;28;20261;-75
2023/05/15 05:49:09;;;;;;;25.40;17.77;;;;;;;;;;5010748;28;20326;-76
2023/05/15 05:51:37;;;;;;;26.83;17.03;;;;;;;;;;5010458;28;20705;-76
2023/05/15 05:54:03;;;;;;;24.70;16.77;;;;;;;;;;5011222;28;20679;-75
2023/05/15 05:56:28;;;;;;;24.38;16.30;;;;;;;;;;4997895;28;20369;-76
2023/05/15 05:58:55;;;;;;;24.17;16.13;;;;;;;;;;5009251;28;20186;-77
2023/05/15 06:01:20;;;;;;;21.88;15.02;;;;;;;;;;4997111;28;20210;-76
2023/05/15 06:03:45;;;;;;;25.92;16.05;;;;;;;;;;5004935;28;20572;-75
2023/05/15 06:06:11;;;;;;;21.85;16.60;;;;;;;;;;5002589;28;20253;-76
2023/05/15 06:08:36;;;;;;;24.75;17.17;;;;;;;;;;5003192;28;20175;-76
2023/05/15 06:11:02;;;;;;;23.65;17.50;;;;;;;;;;5020170;22;20234;-68
2023/05/15 06:13:27;;;;;;;22.40;15.90;;;;;;;;;;5002000;28;20266;-68
2023/05/15 06:15:53;;;;;;;24.45;17.10;;;;;;;;;;4991500;28;20180;-68
2023/05/15 06:18:18;;;;;;;26.63;17.15;;;;;;;;;;4991261;28;20602;-68
2023/05/15 06:20:43;;;;;;;24.67;17.40;;;;;;;;;;4988925;28;20184;-68
2023/05/15 06:23:08;;;;;;;26.90;18.13;;;;;;;;;;4987273;28;20609;-68
2023/05/15 06:25:34;;;;;;;24.27;16.27;;;;;;;;;;4990538;28;20219;-68
2023/05/15 06:27:59;;;;;;;22.27;16.60;;;;;;;;;;5002067;28;20182;-68
2023/05/15 06:30:25;;;;;;;23.55;17.67;;;;;;;;;;4990118;28;20725;-68
2023/05/15 06:32:50;;;;;;;22.88;16.60;;;;;;;;;;4986053;28;20451;-68
2023/05/15 06:35:15;;;;;;;25.55;17.75;;;;;;;;;;4988504;28;20191;-68
2023/05/15 06:37:40;;;;;;;27.70;19.23;;;;;;;;;;4990782;28;20188;-68
2023/05/15 06:40:06;;;;;;;27.52;17.67;;;;;;;;;;4989533;28;21886;-68
2023/05/15 06:42:31;;;;;;;20.88;15.93;;;;;;;;;;4981529;28;20712;-69
2023/05/15 06:44:56;;;;;;;23.80;15.07;;;;;;;;;;4983492;28;20210;-69
2023/05/15 06:47:22;;;;;;;21.20;15.80;;;;;;;;;;4982546;28;20184;-68
2023/05/15 06:49:47;;;;;;;23.38;14.57;;;;;;;;;;4980882;28;20203;-68
2023/05/15 06:52:12;;;;;;;23.08;15.23;;;;;;;;;;4982729;28;20211;-68
2023/05/15 06:54:39;;;;;;;30.55;14.88;;;;;;;;;;4982499;28;20320;-68
2023/05/15 06:57:04;;;;;;;21.25;16.30;;;;;;;;;;4991890;28;20283;-68
2023/05/15 06:59:33;;;;;;;20.58;15.18;;;;;;;;;;4978467;28;20183;-68
2023/05/15 07:01:59;;;;;;;21.67;15.02;;;;;;;;;;4981814;28;20270;-69
2023/05/15 07:04:24;;;;;;;23.55;16.05;;;;;;;;;;4988194;28;20184;-68
2023/05/15 07:06:50;;;;;;;22.95;16.15;;;;;;;;;;4991673;28;20291;-68
2023/05/15 07:09:15;;;;;;;21.00;15.82;;;;;;;;;;4985925;28;20179;-68
2023/05/15 07:11:41;;;;;;;24.42;15.15;;;;;;;;;;4982623;28;20254;-68
2023/05/15 07:14:06;;;;;;;20.80;15.57;;;;;;;;;;4984619;28;20172;-68
2023/05/15 07:16:31;;;;;;;23.65;14.85;;;;;;;;;;4984574;28;20275;-69
2023/05/15 07:18:56;;;;;;;20.98;15.15;;;;;;;;;;4986141;28;20180;-68
2023/05/15 07:21:21;;;;;;;17.80;13.50;;;;;;;;;;4985695;28;20207;-68
2023/05/15 07:23:47;;;;;;;21.10;14.75;;;;;;;;;;4985527;28;20271;-68
2023/05/15 07:26:12;;;;;;;24.15;15.73;;;;;;;;;;4985866;28;20218;-68
2023/05/15 07:28:38;;;;;;;21.40;15.18;;;;;;;;;;4987981;28;20650;-68
2023/05/15 07:31:03;;;;;;;25.08;15.10;;;;;;;;;;4985514;28;20203;-69
2023/05/15 07:33:28;;;;;;;20.63;14.75;;;;;;;;;;4985511;28;20720;-69
2023/05/15 07:35:54;;;;;;;18.27;14.68;;;;;;;;;;4982781;28;20183;-67
2023/05/15 07:38:19;;;;;;;20.85;13.75;;;;;;;;;;4991514;28;20207;-68
2023/05/15 07:40:44;;;;;;;21.67;13.73;;;;;;;;;;4993954;28;20294;-68
2023/05/15 07:43:09;;;;;;;16.90;12.10;;;;;;;;;;4981025;28;20530;-68
2023/05/15 07:45:34;;;;;;;20.05;14.88;;;;;;;;;;4984192;28;20204;-67
2023/05/15 07:48:11;;;;;;;20.60;14.73;;;;;;;;;;4989807;28;20267;-68
2023/05/15 07:50:36;;;;;;;18.48;13.60;;;;;;;;;;4992254;28;20184;-68
2023/05/15 07:53:02;;;;;;;22.55;15.27;;;;;;;;;;4997835;28;20707;-66
2023/05/15 07:55:27;;;;;;;21.33;14.80;;;;;;;;;;4990453;28;20187;-69
2023/05/15 07:57:52;;;;;;;19.95;14.35;;;;;;;;;;4993313;28;20266;-68
2023/05/15 08:00:18;;;;;;;16.75;12.73;;;;;;;;;;4988366;28;20172;-68
2023/05/15 08:02:45;;;;;;;19.27;13.40;;;;;;;;;;4992173;28;20234;-68
2023/05/15 08:05:10;;;;;;;17.90;12.85;;;;;;;;;;4991697;28;20249;-68
2023/05/15 08:07:35;;;;;;;17.15;12.95;;;;;;;;;;4993441;28;20172;-68
2023/05/15 08:10:00;;;;;;;19.05;14.60;;;;;;;;;;4993347;28;20176;-68
2023/05/15 08:12:26;;;;;;;20.10;13.98;;;;;;;;;;4992482;28;20219;-69
2023/05/15 08:14:54;;;;;;;19.67;14.00;;;;;;;;;;4992193;28;20180;-68
2023/05/15 08:17:20;;;;;;;24.15;13.77;;;;;;;;;;4992983;28;20184;-68
2023/05/15 08:19:46;;;;;;;17.88;13.85;;;;;;;;;;4991284;28;20187;-68
2023/05/15 08:22:11;;;;;;;17.80;13.63;;;;;;;;;;4992833;28;20196;-67
2023/05/15 08:24:37;;;;;;;17.15;12.30;;;;;;;;;;4989372;28;20670;-68
2023/05/15 08:27:03;;;;;;;16.40;12.55;;;;;;;;;;4990826;28;20214;-68
2023/05/15 08:29:29;;;;;;;19.60;13.68;;;;;;;;;;4993323;28;20211;-68
2023/05/15 08:31:54;;;;;;;20.10;13.15;;;;;;;;;;4992812;28;20657;-67
2023/05/15 08:34:19;;;;;;;17.55;12.45;;;;;;;;;;4992669;28;20184;-67
2023/05/15 08:36:44;;;;;;;19.20;13.48;;;;;;;;;;4990592;28;20203;-68
2023/05/15 08:39:10;;;;;;;22.80;13.27;;;;;;;;;;4992052;28;20198;-68
2023/05/15 08:41:37;;;;;;;18.80;13.07;;;;;;;;;;4989870;28;20238;-68
2023/05/15 08:44:03;;;;;;;18.83;12.77;;;;;;;;;;4990638;28;20176;-70
2023/05/15 08:46:29;;;;;;;21.13;12.90;;;;;;;;;;4990865;28;20204;-68
2023/05/15 08:48:55;;;;;;;18.75;12.43;;;;;;;;;;4993464;28;20175;-68
2023/05/15 08:51:21;;;;;;;21.75;13.73;;;;;;;;;;4992187;28;20561;-68
2023/05/15 08:53:47;;;;;;;18.10;12.90;;;;;;;;;;4990148;28;20186;-68
2023/05/15 08:56:12;;;;;;;16.38;12.63;;;;;;;;;;4990332;28;20557;-68
2023/05/15 08:58:37;;;;;;;23.08;12.68;;;;;;;;;;4991000;28;20636;-68
2023/05/15 09:01:02;;;;;;;19.92;14.10;;;;;;;;;;4990315;28;20207;-68
2023/05/15 09:03:28;;;;;;;19.33;13.45;;;;;;;;;;4984425;28;20804;-68
2023/05/15 09:05:53;;;;;;;20.63;13.40;;;;;;;;;;4987725;28;20558;-68
2023/05/15 09:08:20;;;;;;;23.58;13.07;;;;;;;;;;4991930;28;20538;-70
2023/05/15 09:10:46;;;;;;;19.95;14.00;;;;;;;;;;4988823;28;20281;-67
2023/05/15 09:13:11;;;;;;;22.85;14.77;;;;;;;;;;4989878;28;20626;-68
2023/05/15 09:15:37;;;;;;;25.50;15.95;;;;;;;;;;4991831;28;20202;-68
2023/05/15 09:18:02;;;;;;;22.35;14.55;;;;;;;;;;4992128;28;20215;-68
2023/05/15 09:20:34;;;;;;;19.52;13.25;;;;;;;;;;4990357;28;20271;-68
2023/05/15 09:23:01;;;;;;;24.42;15.88;;;;;;;;;;4985057;28;20195;-68
2023/05/15 09:25:39;;;;;;;24.50;14.50;;;;;;;;;;4989362;28;20290;-68
2023/05/15 09:28:05;;;;;;;26.75;17.08;;;;;;;;;;4987731;28;20187;-68
2023/05/15 09:30:30;;;;;;;23.52;15.88;;;;;;;;;;4984694;28;20318;-67
2023/05/15 09:33:00;;;;;;;24.75;16.42;;;;;;;;;;4992606;28;20263;-68
2023/05/15 09:35:35;;;;;;;27.90;16.65;;;;;;;;;;4990539;28;20563;-67
2023/05/15 09:38:02;;;;;;;23.35;16.05;;;;;;;;;;4988046;28;20175;-68
2023/05/15 09:40:28;;;;;;;29.83;16.83;;;;;;;;;;4991537;28;20676;-68
2023/05/15 09:42:53;;;;;;;29.80;17.45;;;;;;;;;;4989850;28;20198;-68
2023/05/15 09:45:19;;;;;;;29.83;16.27;;;;;;;;;;4989425;28;20199;-68
2023/05/15 09:47:44;;;;;;;31.48;17.58;;;;;;;;;;4990923;28;20346;-68
2023/05/15 09:50:10;;;;;;;26.90;16.55;;;;;;;;;;4990886;28;20182;-68
2023/05/15 09:52:35;;;;;;;26.13;17.23;;;;;;;;;;4991767;28;20199;-68
2023/05/15 09:55:00;;;;;;;26.65;16.88;;;;;;;;;;4987088;28;20180;-68
2023/05/15 09:57:26;;;;;;;30.50;18.77;;;;;;;;;;4989344;28;20188;-68
2023/05/15 09:59:51;;;;;;;25.77;17.95;;;;;;;;;;4991376;28;20180;-68
2023/05/15 10:02:23;;;;;;;28.05;17.10;;;;;;;;;;4991065;28;20669;-68
2023/05/15 10:04:52;;;;;;;33.72;18.90;;;;;;;;;;4990819;28;20179;-68
2023/05/15 10:07:24;;;;;;;32.10;18.98;;;;;;;;;;4991499;28;20184;-68
2023/05/15 10:09:49;;;;;;;34.88;20.05;;;;;;;;;;4990026;28;20176;-68
2023/05/15 10:12:14;;;;;;;30.63;19.75;;;;;;;;;;4990792;28;20756;-68
2023/05/15 10:14:40;;;;;;;35.90;20.35;;;;;;;;;;4989966;28;20195;-68
2023/05/15 10:17:05;;;;;;;36.38;21.20;;;;;;;;;;4989264;28;20183;-68
2023/05/15 10:19:32;;;;;;;34.30;20.88;;;;;;;;;;4991052;28;20237;-68
2023/05/15 10:21:57;;;;;;;33.40;21.45;;;;;;;;;;4991922;28;20286;-68
2023/05/15 10:24:24;;;;;;;37.75;22.58;;;;;;;;;;4981182;28;20279;-68
2023/05/15 10:26:49;;;;;;;36.05;21.60;;;;;;;;;;4987098;28;20768;-68
2023/05/15 10:29:17;;;;;;;38.42;22.95;;;;;;;;;;4986911;28;20272;-68
2023/05/15 10:31:42;;;;;;;38.00;22.45;;;;;;;;;;4990758;28;20196;-68
2023/05/15 10:34:08;;;;;;;44.30;23.33;;;;;;;;;;4989837;28;20184;-68
2023/05/15 10:36:34;;;;;;;39.83;24.25;;;;;;;;;;4990667;28;20183;-68
2023/05/15 10:39:00;;;;;;;41.47;24.27;;;;;;;;;;4988452;28;20229;-68
2023/05/15 10:41:26;;;;;;;46.35;24.23;;;;;;;;;;4989480;28;20286;-68
2023/05/15 10:43:52;;;;;;;41.92;23.70;;;;;;;;;;4987642;28;20179;-68
2023/05/15 10:46:18;;;;;;;42.15;24.00;;;;;;;;;;4989272;28;20200;-68
2023/05/15 10:48:43;;;;;;;44.55;25.98;;;;;;;;;;4993601;28;20190;-68
2023/05/15 10:51:16;;;;;;;39.42;23.77;;;;;;;;;;4994716;28;20282;-68
2023/05/15 10:53:42;;;;;;;43.10;25.08;;;;;;;;;;4994401;28;20254;-68
2023/05/15 10:56:11;;;;;;;43.75;24.58;;;;;;;;;;4992217;28;20270;-68
2023/05/15 10:58:36;;;;;;;38.28;21.73;;;;;;;;;;4994274;28;20183;-68
2023/05/15 11:01:01;;;;;;;39.72;22.67;;;;;;;;;;4994580;28;20215;-68
2023/05/15 11:03:36;;;;;;;39.22;22.83;;;;;;;;;;4994086;28;20210;-68
2023/05/15 11:06:11;;;;;;;40.92;24.60;;;;;;;;;;4993946;28;20199;-68
2023/05/15 11:08:40;;;;;;;40.60;22.80;;;;;;;;;;4991494;28;20747;-68
2023/05/15 11:11:05;;;;;;;35.67;22.88;;;;;;;;;;4992693;28;20207;-68
2023/05/15 11:13:49;;;;;;;43.80;26.63;;;;;;;;;;4986998;28;20174;-68
2023/05/15 11:16:34;;;;;;;39.67;24.17;;;;;;;;;;5009579;28;20183;-68
2023/05/15 11:18:59;;;;;;;45.03;22.98;;;;;;;;;;4994225;28;20178;-68
2023/05/15 11:21:31;;;;;;;32.97;20.20;;;;;;;;;;4992924;28;20290;-68
2023/05/15 11:24:02;;;;;;;28.48;18.98;;;;;;;;;;4992473;28;20528;-68
2023/05/15 11:26:33;;;;;;;28.45;17.52;;;;;;;;;;4994169;28;20212;-68
2023/05/15 11:29:16;;;;;;;23.38;16.17;;;;;;;;;;4993142;28;20259;-68
2023/05/15 11:31:41;;;;;;;22.40;14.93;;;;;;;;;;4986530;28;20191;-68
2023/05/15 11:34:06;;;;;;;22.35;15.70;;;;;;;;;;4993990;28;20203;-68
2023/05/15 11:36:32;;;;;;;23.23;14.90;;;;;;;;;;4991728;28;20172;-68
2023/05/15 11:38:58;;;;;;;20.75;14.75;;;;;;;;;;4993365;28;20172;-68
2023/05/15 11:41:30;;;;;;;21.58;15.43;;;;;;;;;;4993402;28;20321;-68
2023/05/15 11:43:56;;;;;;;19.83;13.98;;;;;;;;;;4993840;28;20274;-68
2023/05/15 11:46:21;;;;;;;21.60;14.88;;;;;;;;;;4990745;28;20794;-68
2023/05/15 11:48:46;;;;;;;20.67;13.45;;;;;;;;;;4992218;28;20180;-68
2023/05/15 11:51:15;;;;;;;18.63;12.75;;;;;;;;;;4993894;28;20187;-68
2023/05/15 11:53:41;;;;;;;18.70;12.77;;;;;;;;;;4993732;28;20226;-68
2023/05/15 11:56:06;;;;;;;22.15;12.32;;;;;;;;;;4991751;28;20175;-68
2023/05/15 11:58:31;;;;;;;16.10;11.65;;;;;;;;;;4988789;28;20666;-68
2023/05/15 12:00:56;;;;;;;16.30;11.02;;;;;;;;;;4984304;28;20748;-68
2023/05/15 12:03:26;;;;;;;19.75;11.75;;;;;;;;;;4993215;28;20199;-68
2023/05/15 12:05:54;;;;;;;17.00;9.73;;;;;;;;;;4993635;28;20266;-68
2023/05/15 12:08:20;;;;;;;14.25;10.77;;;;;;;;;;4987297;28;20176;-68
2023/05/15 12:13:17;;;;;;;11.30;8.05;;;;;;;;;;4991872;28;20223;-73
2023/05/15 12:15:43;;;;;;;13.35;8.43;;;;;;;;;;4994744;28;20179;-73
2023/05/15 12:18:09;;;;;;;12.77;8.07;;;;;;;;;;4993590;28;20214;-74
2023/05/15 12:20:35;;;;;;;10.57;6.32;;;;;;;;;;4992612;28;20224;-73
2023/05/15 12:23:04;;;;;;;7.65;5.50;;;;;;;;;;4974543;28;20223;-73
2023/05/15 12:25:31;;;;;;;9.18;5.20;;;;;;;;;;4966586;28;20201;-73
2023/05/15 12:27:57;;;;;;;7.35;4.90;;;;;;;;;;4973111;28;20181;-73
2023/05/15 12:30:22;;;;;;;6.90;4.80;;;;;;;;;;4971493;28;20177;-73
2023/05/15 12:32:48;;;;;;;7.78;5.18;;;;;;;;;;4974039;28;20198;-73
2023/05/15 12:35:14;;;;;;;6.20;4.47;;;;;;;;;;4974314;28;20605;-73
2023/05/15 12:37:40;;;;;;;8.27;4.80;;;;;;;;;;4974317;28;20188;-75
2023/05/15 12:40:10;;;;;;;9.48;5.47;;;;;;;;;;4972972;28;20295;-74
2023/05/15 12:42:38;;;;;;;10.60;5.40;;;;;;;;;;4965743;28;20200;-74
2023/05/15 12:45:10;;;;;;;7.43;4.55;;;;;;;;;;4968433;28;20175;-75
2023/05/15 12:47:36;;;;;;;11.18;5.80;;;;;;;;;;4970395;28;20193;-74
2023/05/15 12:50:10;;;;;;;9.93;6.03;;;;;;;;;;4974255;28;20180;-74
2023/05/15 12:52:35;;;;;;;9.70;5.25;;;;;;;;;;4972425;28;20200;-74
2023/05/15 12:55:00;;;;;;;10.30;6.03;;;;;;;;;;4973316;28;20716;-74
2023/05/15 12:57:26;;;;;;;10.93;6.93;;;;;;;;;;4970496;28;20196;-74
2023/05/15 12:59:51;;;;;;;7.95;5.80;;;;;;;;;;4972888;28;20538;-74
2023/05/15 13:02:16;;;;;;;20.10;8.93;;;;;;;;;;4973805;28;20200;-74
2023/05/15 13:04:41;;;;;;;14.90;7.63;;;;;;;;;;4988928;28;20180;-74
2023/05/15 13:07:07;;;;;;;16.08;8.23;;;;;;;;;;4973362;28;20212;-74
2023/05/15 13:09:34;;;;;;;12.90;7.28;;;;;;;;;;4974556;28;20184;-74
2023/05/15 13:12:02;;;;;;;11.27;6.88;;;;;;;;;;4973059;28;20254;-74
2023/05/15 13:14:31;;;;;;;9.20;6.78;;;;;;;;;;4969900;28;20555;-74
2023/05/15 13:16:58;;;;;;;9.90;5.57;;;;;;;;;;4974038;28;20180;-74
2023/05/15 13:19:23;;;;;;;7.95;5.28;;;;;;;;;;4971313;28;20188;-75
2023/05/15 13:21:49;;;;;;;6.57;4.50;;;;;;;;;;4972551;28;20204;-74
2023/05/15 13:24:15;;;;;;;6.43;4.25;;;;;;;;;;4972770;28;20173;-74
2023/05/15 13:26:40;;;;;;;8.15;4.28;;;;;;;;;;4974565;28;20204;-74
2023/05/15 13:29:05;;;;;;;7.40;3.90;;;;;;;;;;4973717;28;20183;-74
2023/05/15 13:31:31;;;;;;;5.50;3.47;;;;;;;;;;4973886;28;20638;-74
2023/05/15 13:33:56;;;;;;;7.88;3.53;;;;;;;;;;4972597;28;20156;-74
2023/05/15 13:36:21;;;;;;;4.57;3.33;;;;;;;;;;4973650;28;20183;-74
2023/05/15 13:38:46;;;;;;;5.20;3.75;;;;;;;;;;4973510;28;20180;-74
2023/05/15 13:41:11;;;;;;;9.73;3.85;;;;;;;;;;4972402;28;20207;-74
2023/05/15 13:43:37;;;;;;;11.25;4.25;;;;;;;;;;4966111;28;20241;-74
2023/05/15 13:46:02;;;;;;;7.53;4.13;;;;;;;;;;4968435;28;20208;-74
2023/05/15 13:48:27;;;;;;;8.55;3.83;;;;;;;;;;4972604;28;20750;-75
2023/05/15 13:50:52;;;;;;;6.68;4.20;;;;;;;;;;4973808;28;20185;-74
2023/05/15 13:53:18;;;;;;;4.65;3.30;;;;;;;;;;4973261;28;20176;-75
2023/05/15 13:55:44;;;;;;;7.82;3.72;;;;;;;;;;4972023;28;20188;-74
2023/05/15 13:58:10;;;;;;;6.38;3.83;;;;;;;;;;4970379;28;20305;-74
2023/05/15 14:00:36;;;;;;;7.68;3.80;;;;;;;;;;4972453;28;20196;-74
2023/05/15 14:03:01;;;;;;;7.45;3.17;;;;;;;;;;4972170;28;20580;-74
2023/05/15 14:05:26;;;;;;;7.82;2.97;;;;;;;;;;4973384;28;20204;-74
2023/05/15 14:07:51;;;;;;;7.97;2.97;;;;;;;;;;4972071;28;20669;-74
2023/05/15 14:10:16;;;;;;;5.57;2.90;;;;;;;;;;4971464;28;20655;-74
2023/05/15 14:12:42;;;;;;;8.27;3.08;;;;;;;;;;4970877;28;20207;-74
2023/05/15 14:15:09;;;;;;;5.40;3.70;;;;;;;;;;4973569;28;20199;-74
2023/05/15 14:17:35;;;;;;;5.45;2.30;;;;;;;;;;4974631;28;20180;-74